| Date | Time | Temp. (oF) | Dew Point (oF) | Rel. Hum. (%) | Press. (in.) | Wind Dir. | Wind Speed (mph) | Hourly Rainfall (in.) |
|
|---|---|---|---|---|---|---|---|---|---|
| 1 | 11/14 | 00:00 | 34 | 33 | 100 | 30.32 | NNW | 2 | 0.00 |
| 2 | 11/13 | 23:00 | 33 | 32 | 100 | 30.31 | NNW | 0 | 0.00 |
| 3 | 11/13 | 22:00 | 32 | 32 | 100 | 30.32 | NNW | 2 | 0.00 |
| 4 | 11/13 | 21:00 | 34 | 33 | 100 | 30.31 | NNW | 1 | 0.00 |
| 5 | 11/13 | 20:00 | 36 | 36 | 100 | 30.31 | NNW | 1 | 0.00 |
| 6 | 11/13 | 19:00 | 38 | 37 | 98 | 30.31 | NNW | 0 | 0.00 |
| 7 | 11/13 | 18:00 | 41 | 38 | 92 | 30.30 | NNW | 1 | 0.00 |
| 8 | 11/13 | 17:00 | 43 | 39 | 87 | 30.28 | NNW | 1 | 0.00 |
| 9 | 11/13 | 16:00 | 43 | 38 | 85 | 30.28 | N | 4 | 0.00 |
| 10 | 11/13 | 15:00 | 43 | 38 | 83 | 30.27 | NNW | 4 | 0.00 |
| 11 | 11/13 | 14:00 | 42 | 38 | 86 | 30.27 | NW | 7 | 0.00 |
| 12 | 11/13 | 13:00 | 41 | 37 | 86 | 30.28 | W | 7 | 0.00 |
| 13 | 11/13 | 12:00 | 38 | 34 | 88 | 30.30 | NW | 4 | 0.00 |
| 14 | 11/13 | 11:00 | 38 | 36 | 93 | 30.32 | NNW | 5 | 0.00 |
| 15 | 11/13 | 10:00 | 36 | 34 | 94 | 30.33 | NNW | 3 | 0.00 |
| 16 | 11/13 | 09:00 | 35 | 34 | 98 | 30.33 | NNW | 4 | 0.00 |
| 17 | 11/13 | 08:00 | 34 | 33 | 100 | 30.33 | N | 6 | 0.00 |
| 18 | 11/13 | 07:00 | 35 | 35 | 100 | 30.33 | NW | 3 | 0.01 |
| 19 | 11/13 | 06:00 | 35 | 34 | 99 | 30.32 | NE | 2 | 0.00 |
| 20 | 11/13 | 05:00 | 35 | 34 | 99 | 30.31 | NE | 2 | 0.03 |
| 21 | 11/13 | 04:00 | 35 | 33 | 95 | 30.31 | NE | 2 | 0.05 |
| 22 | 11/13 | 03:00 | 35 | 33 | 94 | 30.32 | NE | 1 | 0.01 |
| 23 | 11/13 | 02:00 | 36 | 30 | 80 | 30.32 | NE | 1 | 0.00 |
| 24 | 11/13 | 01:00 | 36 | 30 | 80 | 30.32 | ENE | 2 | 0.00 |